18h38 EDT


 

Suivi/Infos de l'aéroport


-ou-


 

Suivi des vols en temps réelTradewind #95 ✈ 12-07-2013 ✈ KOXC - KTEB

Thumbnail
Tradewind 95
GPD95 · "Goodspeed" (tous les vols)
Waterbury-Oxford ()
Teterboro ()
10h18 EDT
11h03 EDT (?)
Prévu: 10h15 EDT
Prévu: 10h51 EDT
Durée: 45 minutes
vendredi, 12 juillet 2013
Statut résultat inconnu (?) (journal de vol & graphique)
Avion Cessna Caravan (monoturbopropulseur) (C208/G – photos)
Vitesse Plan de vol: 162 kts (graphique)
Altitude Plan de vol: 6.000 Pieds (graphique)
Distance En ligne droite 104 km
Route CMK V623 SAX (Décoder)
JOURNAL DE L'ACTIVITE
Vous voulez une recherche complète sur l'historique de GPD95 depuis 1998? Achetez maintenant. Recevez-le dans l'heure.
Date Avion Provenance Destination Départ Arrivée Durée
19-08-2014 C208/GLaGuardia ()Westchester County () 18h46 EDT 18h55 EDT 0:09
19-08-2014 C208/GMontauk ()LaGuardia () 17h27 EDT 18h01 EDT 0:33
19-08-2014 C208/GWestchester County ()Montauk () 15h45 EDT 16h14 EDT (?) 0:28
17-08-2014 C208/GMartha's Vineyard ()Westchester County () 19h31 EDT 20h29 EDT 0:58
17-08-2014 C208/GWestchester County ()Martha's Vineyard () 17h25 EDT 18h18 EDT 0:53
17-08-2014 C208Martha's Vineyard ()Westchester County () 15h25 EDT 16h27 EDT 1:01
17-08-2014 C208Westchester County ()Martha's Vineyard () 13h51 EDT 14h43 EDT 0:52
17-08-2014 C208/GMartha's Vineyard ()Westchester County () 11h24 EDT 12h27 EDT 1:03
15-08-2014 C208/GGroton-New London ()Martha's Vineyard () 18h55 EDT 19h46 EDT 0:50
15-08-2014 C208/GMartha's Vineyard ()Westchester County () 16h02 EDT 17h03 EDT 1:01
15-08-2014 C208/AWestchester County ()Martha's Vineyard () 14h46 EDT 15h39 EDT 0:52
13-08-2014 C208/GBinghamton ()Westchester County () 13h11 EDT 14h11 EDT 1:00
13-08-2014 C208/GMontauk ()Binghamton () 10h37 EDT 12h06 EDT 1:29
13-08-2014 C208/GWestchester County ()Montauk () 08h52 EDT 09h38 EDT 0:46
10-08-2014 C208/GMartha's Vineyard ()Westchester County () 19h51 EDT 20h51 EDT 1:00
10-08-2014 C208/GGroton-New London ()Martha's Vineyard () 18h47 EDT 19h16 EDT 0:29
10-08-2014 C208/GWestchester County ()Martha's Vineyard () 18h18 EDT 19h18 EDT (?) 1:00
10-08-2014 C208/GMartha's Vineyard ()Westchester County () 15h37 EDT 16h33 EDT 0:55
08-08-2014 PC12Nantucket Memorial ()Waterbury-Oxford () 20h31 EDT 20h57 EDT 0:26
08-08-2014 C208/GGroton-New London ()Nantucket Memorial () 19h30 EDT 20h01 EDT (?) 0:31
08-08-2014 C208/GGroton-New London ()Martha's Vineyard () 19h30 EDT Dérouté
08-08-2014 PC12Nantucket Memorial ()Teterboro () 17h36 EDT 18h27 EDT 0:51
08-08-2014 C208/GMartha's Vineyard ()Westchester County () 16h43 EDT 17h34 EDT 0:51
08-08-2014 C208/GWestchester County ()Martha's Vineyard () 15h14 EDT 16h12 EDT (?) 0:57
08-08-2014 C208/GWaterbury-Oxford ()Westchester County () 13h01 EDT 13h19 EDT (?) 0:18
07-08-2014 C208/GMartha's Vineyard ()Block Island State () 16h50 EDT 16h57 EDT (?) 0:07
07-08-2014 C208/GWestchester County ()Martha's Vineyard () 14h57 EDT 15h50 EDT (?) 0:52
07-08-2014 C208/GWaterbury-Oxford ()Westchester County () 13h06 EDT 13h28 EDT (?) 0:22
Les membres inscrits (l'inscription est gratuite et facile!) voient 4 months d'historique. S'inscrire